sensor_id;sensor_type;location;lat;lon;timestamp;P1;durP1;ratioP1;P2;durP2;ratioP2
19535;SDS011;9913;51.168;4.124;2024-03-08T00:00:23;42.10;;;24.27;;
19535;SDS011;9913;51.168;4.124;2024-03-08T00:02:52;42.00;;;22.13;;
19535;SDS011;9913;51.168;4.124;2024-03-08T00:05:20;44.70;;;25.03;;
19535;SDS011;9913;51.168;4.124;2024-03-08T00:07:52;48.47;;;25.80;;
19535;SDS011;9913;51.168;4.124;2024-03-08T00:10:21;47.10;;;25.13;;
19535;SDS011;9913;51.168;4.124;2024-03-08T00:12:53;43.27;;;22.87;;
19535;SDS011;9913;51.168;4.124;2024-03-08T00:15:22;45.87;;;24.30;;
19535;SDS011;9913;51.168;4.124;2024-03-08T00:17:50;44.70;;;23.73;;
19535;SDS011;9913;51.168;4.124;2024-03-08T00:20:19;47.07;;;25.40;;
19535;SDS011;9913;51.168;4.124;2024-03-08T00:22:47;47.00;;;26.13;;
19535;SDS011;9913;51.168;4.124;2024-03-08T00:25:17;52.70;;;26.17;;
19535;SDS011;9913;51.168;4.124;2024-03-08T00:27:45;49.67;;;26.07;;
19535;SDS011;9913;51.168;4.124;2024-03-08T00:30:16;50.83;;;24.97;;
19535;SDS011;9913;51.168;4.124;2024-03-08T00:32:45;46.37;;;25.70;;
19535;SDS011;9913;51.168;4.124;2024-03-08T00:35:13;48.50;;;25.47;;
19535;SDS011;9913;51.168;4.124;2024-03-08T00:37:42;46.63;;;22.97;;
19535;SDS011;9913;51.168;4.124;2024-03-08T00:40:13;48.37;;;26.13;;
19535;SDS011;9913;51.168;4.124;2024-03-08T00:42:43;47.93;;;24.50;;
19535;SDS011;9913;51.168;4.124;2024-03-08T00:45:12;47.23;;;24.97;;
19535;SDS011;9913;51.168;4.124;2024-03-08T00:47:40;49.50;;;25.90;;
19535;SDS011;9913;51.168;4.124;2024-03-08T00:50:11;46.30;;;23.47;;
19535;SDS011;9913;51.168;4.124;2024-03-08T00:52:40;47.53;;;25.93;;
19535;SDS011;9913;51.168;4.124;2024-03-08T00:55:08;50.00;;;25.27;;
19535;SDS011;9913;51.168;4.124;2024-03-08T00:57:38;49.50;;;25.00;;
19535;SDS011;9913;51.168;4.124;2024-03-08T01:00:08;47.33;;;25.83;;
19535;SDS011;9913;51.168;4.124;2024-03-08T01:02:39;46.63;;;24.33;;
19535;SDS011;9913;51.168;4.124;2024-03-08T01:05:08;50.20;;;24.03;;
19535;SDS011;9913;51.168;4.124;2024-03-08T01:07:36;48.67;;;24.97;;
19535;SDS011;9913;51.168;4.124;2024-03-08T01:10:05;45.73;;;24.43;;
19535;SDS011;9913;51.168;4.124;2024-03-08T01:12:37;45.37;;;25.30;;
19535;SDS011;9913;51.168;4.124;2024-03-08T01:15:06;43.97;;;24.67;;
19535;SDS011;9913;51.168;4.124;2024-03-08T01:17:37;48.70;;;25.07;;
19535;SDS011;9913;51.168;4.124;2024-03-08T01:20:06;44.00;;;25.20;;
19535;SDS011;9913;51.168;4.124;2024-03-08T01:22:38;44.63;;;23.13;;
19535;SDS011;9913;51.168;4.124;2024-03-08T01:25:06;49.27;;;24.47;;
19535;SDS011;9913;51.168;4.124;2024-03-08T01:27:35;43.63;;;23.27;;
19535;SDS011;9913;51.168;4.124;2024-03-08T01:30:05;39.87;;;22.87;;
19535;SDS011;9913;51.168;4.124;2024-03-08T01:32:37;40.20;;;22.87;;
19535;SDS011;9913;51.168;4.124;2024-03-08T01:35:06;44.37;;;24.37;;
19535;SDS011;9913;51.168;4.124;2024-03-08T01:37:37;48.63;;;25.13;;
19535;SDS011;9913;51.168;4.124;2024-03-08T01:40:06;47.57;;;23.30;;
19535;SDS011;9913;51.168;4.124;2024-03-08T01:42:36;45.57;;;25.17;;
19535;SDS011;9913;51.168;4.124;2024-03-08T01:45:05;39.67;;;23.23;;
19535;SDS011;9913;51.168;4.124;2024-03-08T01:47:35;40.03;;;25.20;;
19535;SDS011;9913;51.168;4.124;2024-03-08T01:50:05;40.43;;;22.37;;
19535;SDS011;9913;51.168;4.124;2024-03-08T01:52:35;42.03;;;24.00;;
19535;SDS011;9913;51.168;4.124;2024-03-08T01:55:04;48.20;;;25.50;;
19535;SDS011;9913;51.168;4.124;2024-03-08T01:57:34;43.80;;;23.67;;
19535;SDS011;9913;51.168;4.124;2024-03-08T02:00:05;44.73;;;25.40;;
19535;SDS011;9913;51.168;4.124;2024-03-08T02:02:37;40.30;;;23.27;;
19535;SDS011;9913;51.168;4.124;2024-03-08T02:05:11;46.17;;;24.57;;
19535;SDS011;9913;51.168;4.124;2024-03-08T02:07:40;39.83;;;24.17;;
19535;SDS011;9913;51.168;4.124;2024-03-08T02:10:10;38.50;;;23.33;;
19535;SDS011;9913;51.168;4.124;2024-03-08T02:12:39;37.60;;;22.37;;
19535;SDS011;9913;51.168;4.124;2024-03-08T02:15:08;41.20;;;24.17;;
19535;SDS011;9913;51.168;4.124;2024-03-08T02:17:37;40.73;;;24.73;;
19535;SDS011;9913;51.168;4.124;2024-03-08T02:20:06;39.40;;;23.17;;
19535;SDS011;9913;51.168;4.124;2024-03-08T02:22:37;38.70;;;25.03;;
19535;SDS011;9913;51.168;4.124;2024-03-08T02:25:06;44.03;;;24.27;;
19535;SDS011;9913;51.168;4.124;2024-03-08T02:27:36;40.70;;;23.00;;
19535;SDS011;9913;51.168;4.124;2024-03-08T02:30:05;42.67;;;24.83;;
19535;SDS011;9913;51.168;4.124;2024-03-08T02:32:34;38.57;;;24.17;;
19535;SDS011;9913;51.168;4.124;2024-03-08T02:35:03;39.40;;;23.53;;
19535;SDS011;9913;51.168;4.124;2024-03-08T02:37:33;45.90;;;24.00;;
19535;SDS011;9913;51.168;4.124;2024-03-08T02:40:02;37.40;;;23.77;;
19535;SDS011;9913;51.168;4.124;2024-03-08T02:42:32;35.27;;;23.00;;
19535;SDS011;9913;51.168;4.124;2024-03-08T02:45:00;44.13;;;24.93;;
19535;SDS011;9913;51.168;4.124;2024-03-08T02:47:29;41.77;;;24.27;;
19535;SDS011;9913;51.168;4.124;2024-03-08T02:49:58;38.13;;;23.07;;
19535;SDS011;9913;51.168;4.124;2024-03-08T02:52:28;38.27;;;22.60;;
19535;SDS011;9913;51.168;4.124;2024-03-08T02:54:57;39.67;;;23.57;;
19535;SDS011;9913;51.168;4.124;2024-03-08T02:57:27;40.47;;;24.60;;
19535;SDS011;9913;51.168;4.124;2024-03-08T02:59:55;40.43;;;23.97;;
19535;SDS011;9913;51.168;4.124;2024-03-08T03:02:26;38.23;;;22.60;;
19535;SDS011;9913;51.168;4.124;2024-03-08T03:04:54;38.10;;;23.67;;
19535;SDS011;9913;51.168;4.124;2024-03-08T03:07:23;39.83;;;23.37;;
19535;SDS011;9913;51.168;4.124;2024-03-08T03:09:54;41.67;;;24.90;;
19535;SDS011;9913;51.168;4.124;2024-03-08T03:12:22;40.23;;;24.20;;
19535;SDS011;9913;51.168;4.124;2024-03-08T03:14:52;38.17;;;22.80;;
19535;SDS011;9913;51.168;4.124;2024-03-08T03:17:21;39.83;;;24.90;;
19535;SDS011;9913;51.168;4.124;2024-03-08T03:19:49;39.30;;;25.17;;
19535;SDS011;9913;51.168;4.124;2024-03-08T03:22:18;40.73;;;23.80;;
19535;SDS011;9913;51.168;4.124;2024-03-08T03:24:47;37.37;;;23.07;;
19535;SDS011;9913;51.168;4.124;2024-03-08T03:27:15;39.07;;;23.80;;
19535;SDS011;9913;51.168;4.124;2024-03-08T03:29:44;38.03;;;23.63;;
19535;SDS011;9913;51.168;4.124;2024-03-08T03:32:14;38.60;;;24.47;;
19535;SDS011;9913;51.168;4.124;2024-03-08T03:34:45;35.30;;;23.20;;
19535;SDS011;9913;51.168;4.124;2024-03-08T03:37:13;38.50;;;22.90;;
19535;SDS011;9913;51.168;4.124;2024-03-08T03:39:41;37.77;;;25.10;;
19535;SDS011;9913;51.168;4.124;2024-03-08T03:42:16;37.23;;;21.63;;
19535;SDS011;9913;51.168;4.124;2024-03-08T03:44:44;35.97;;;22.63;;
19535;SDS011;9913;51.168;4.124;2024-03-08T03:47:15;37.33;;;24.80;;
19535;SDS011;9913;51.168;4.124;2024-03-08T03:49:44;39.73;;;23.93;;
19535;SDS011;9913;51.168;4.124;2024-03-08T03:52:12;35.40;;;22.57;;
19535;SDS011;9913;51.168;4.124;2024-03-08T03:54:42;39.07;;;23.60;;
19535;SDS011;9913;51.168;4.124;2024-03-08T03:57:10;36.43;;;24.23;;
19535;SDS011;9913;51.168;4.124;2024-03-08T03:59:40;38.73;;;23.80;;
19535;SDS011;9913;51.168;4.124;2024-03-08T04:02:08;37.03;;;23.60;;
19535;SDS011;9913;51.168;4.124;2024-03-08T04:04:38;33.50;;;23.37;;
19535;SDS011;9913;51.168;4.124;2024-03-08T04:07:07;37.77;;;23.80;;
19535;SDS011;9913;51.168;4.124;2024-03-08T04:09:37;39.80;;;24.87;;
19535;SDS011;9913;51.168;4.124;2024-03-08T04:12:06;33.17;;;21.93;;
19535;SDS011;9913;51.168;4.124;2024-03-08T04:14:38;36.37;;;23.53;;
19535;SDS011;9913;51.168;4.124;2024-03-08T04:17:08;35.50;;;23.67;;
19535;SDS011;9913;51.168;4.124;2024-03-08T04:19:39;36.27;;;23.87;;
19535;SDS011;9913;51.168;4.124;2024-03-08T04:22:07;33.53;;;22.43;;
19535;SDS011;9913;51.168;4.124;2024-03-08T04:24:36;36.93;;;22.37;;
19535;SDS011;9913;51.168;4.124;2024-03-08T04:27:04;39.27;;;24.80;;
19535;SDS011;9913;51.168;4.124;2024-03-08T04:29:33;34.70;;;21.43;;
19535;SDS011;9913;51.168;4.124;2024-03-08T04:32:02;34.67;;;21.63;;
19535;SDS011;9913;51.168;4.124;2024-03-08T04:34:32;37.77;;;22.13;;
19535;SDS011;9913;51.168;4.124;2024-03-08T04:37:02;40.67;;;23.60;;
19535;SDS011;9913;51.168;4.124;2024-03-08T04:39:31;39.23;;;23.53;;
19535;SDS011;9913;51.168;4.124;2024-03-08T04:42:00;35.93;;;23.17;;
19535;SDS011;9913;51.168;4.124;2024-03-08T04:44:32;32.43;;;22.00;;
19535;SDS011;9913;51.168;4.124;2024-03-08T04:47:01;33.43;;;23.03;;
19535;SDS011;9913;51.168;4.124;2024-03-08T04:49:29;36.10;;;23.93;;
19535;SDS011;9913;51.168;4.124;2024-03-08T04:51:58;33.17;;;21.63;;
19535;SDS011;9913;51.168;4.124;2024-03-08T04:54:28;39.20;;;24.70;;
19535;SDS011;9913;51.168;4.124;2024-03-08T04:56:56;35.60;;;22.60;;
19535;SDS011;9913;51.168;4.124;2024-03-08T04:59:27;37.87;;;22.53;;
19535;SDS011;9913;51.168;4.124;2024-03-08T05:01:55;36.23;;;23.27;;
19535;SDS011;9913;51.168;4.124;2024-03-08T05:04:24;33.37;;;22.87;;
19535;SDS011;9913;51.168;4.124;2024-03-08T05:06:52;38.20;;;22.57;;
19535;SDS011;9913;51.168;4.124;2024-03-08T05:09:20;33.97;;;21.40;;
19535;SDS011;9913;51.168;4.124;2024-03-08T05:11:52;36.90;;;24.50;;
19535;SDS011;9913;51.168;4.124;2024-03-08T05:14:20;41.93;;;24.03;;
19535;SDS011;9913;51.168;4.124;2024-03-08T05:16:48;40.57;;;23.60;;
19535;SDS011;9913;51.168;4.124;2024-03-08T05:19:17;39.60;;;23.80;;
19535;SDS011;9913;51.168;4.124;2024-03-08T05:21:47;38.50;;;23.83;;
19535;SDS011;9913;51.168;4.124;2024-03-08T05:24:17;36.90;;;23.87;;
19535;SDS011;9913;51.168;4.124;2024-03-08T05:26:45;36.43;;;22.93;;
19535;SDS011;9913;51.168;4.124;2024-03-08T05:29:16;37.43;;;22.80;;
19535;SDS011;9913;51.168;4.124;2024-03-08T05:31:45;37.73;;;24.73;;
19535;SDS011;9913;51.168;4.124;2024-03-08T05:34:15;34.73;;;21.17;;
19535;SDS011;9913;51.168;4.124;2024-03-08T05:36:46;36.50;;;21.90;;
19535;SDS011;9913;51.168;4.124;2024-03-08T05:39:16;37.40;;;23.93;;
19535;SDS011;9913;51.168;4.124;2024-03-08T05:41:45;35.93;;;23.67;;
19535;SDS011;9913;51.168;4.124;2024-03-08T05:44:15;36.50;;;23.27;;
19535;SDS011;9913;51.168;4.124;2024-03-08T05:46:44;36.90;;;23.30;;
19535;SDS011;9913;51.168;4.124;2024-03-08T05:49:14;36.00;;;22.33;;
19535;SDS011;9913;51.168;4.124;2024-03-08T05:51:43;34.90;;;22.47;;
19535;SDS011;9913;51.168;4.124;2024-03-08T05:54:11;39.43;;;24.70;;
19535;SDS011;9913;51.168;4.124;2024-03-08T05:56:44;37.20;;;22.90;;
19535;SDS011;9913;51.168;4.124;2024-03-08T05:59:16;38.53;;;24.70;;
19535;SDS011;9913;51.168;4.124;2024-03-08T06:01:45;39.00;;;24.83;;
19535;SDS011;9913;51.168;4.124;2024-03-08T06:04:13;40.27;;;23.70;;
19535;SDS011;9913;51.168;4.124;2024-03-08T06:06:44;35.47;;;24.27;;
19535;SDS011;9913;51.168;4.124;2024-03-08T06:09:17;40.70;;;24.47;;
19535;SDS011;9913;51.168;4.124;2024-03-08T06:11:51;38.23;;;24.30;;
19535;SDS011;9913;51.168;4.124;2024-03-08T06:14:22;37.57;;;23.33;;
19535;SDS011;9913;51.168;4.124;2024-03-08T06:16:50;36.10;;;22.13;;
19535;SDS011;9913;51.168;4.124;2024-03-08T06:19:19;36.13;;;23.30;;
19535;SDS011;9913;51.168;4.124;2024-03-08T06:21:47;39.33;;;23.43;;
19535;SDS011;9913;51.168;4.124;2024-03-08T06:24:16;36.67;;;22.30;;
19535;SDS011;9913;51.168;4.124;2024-03-08T06:26:44;41.27;;;23.20;;
19535;SDS011;9913;51.168;4.124;2024-03-08T06:29:13;35.80;;;21.60;;
19535;SDS011;9913;51.168;4.124;2024-03-08T06:31:43;38.30;;;23.77;;
19535;SDS011;9913;51.168;4.124;2024-03-08T06:34:12;39.17;;;25.00;;
19535;SDS011;9913;51.168;4.124;2024-03-08T06:36:42;36.10;;;22.63;;
19535;SDS011;9913;51.168;4.124;2024-03-08T06:39:10;36.63;;;21.77;;
19535;SDS011;9913;51.168;4.124;2024-03-08T06:41:39;37.60;;;22.57;;
19535;SDS011;9913;51.168;4.124;2024-03-08T06:44:07;37.43;;;22.97;;
19535;SDS011;9913;51.168;4.124;2024-03-08T06:46:36;40.17;;;24.10;;
19535;SDS011;9913;51.168;4.124;2024-03-08T06:49:06;38.43;;;22.40;;
19535;SDS011;9913;51.168;4.124;2024-03-08T06:51:36;36.03;;;22.90;;
19535;SDS011;9913;51.168;4.124;2024-03-08T06:54:04;40.03;;;23.33;;
19535;SDS011;9913;51.168;4.124;2024-03-08T06:56:36;38.20;;;23.87;;
19535;SDS011;9913;51.168;4.124;2024-03-08T06:59:05;40.23;;;23.40;;
19535;SDS011;9913;51.168;4.124;2024-03-08T07:01:38;38.83;;;24.80;;
19535;SDS011;9913;51.168;4.124;2024-03-08T07:04:08;38.80;;;23.70;;
19535;SDS011;9913;51.168;4.124;2024-03-08T07:06:38;39.37;;;24.87;;
19535;SDS011;9913;51.168;4.124;2024-03-08T07:09:07;40.47;;;24.47;;
19535;SDS011;9913;51.168;4.124;2024-03-08T07:11:36;39.77;;;24.17;;
19535;SDS011;9913;51.168;4.124;2024-03-08T07:14:06;36.83;;;24.13;;
19535;SDS011;9913;51.168;4.124;2024-03-08T07:16:35;40.27;;;23.43;;
19535;SDS011;9913;51.168;4.124;2024-03-08T07:19:03;36.00;;;22.00;;
19535;SDS011;9913;51.168;4.124;2024-03-08T07:21:35;39.20;;;23.87;;
19535;SDS011;9913;51.168;4.124;2024-03-08T07:24:03;38.23;;;23.97;;
19535;SDS011;9913;51.168;4.124;2024-03-08T07:26:51;37.60;;;23.93;;
19535;SDS011;9913;51.168;4.124;2024-03-08T07:29:19;34.13;;;21.97;;
19535;SDS011;9913;51.168;4.124;2024-03-08T07:31:48;36.90;;;23.80;;
19535;SDS011;9913;51.168;4.124;2024-03-08T07:34:27;41.03;;;24.30;;
19535;SDS011;9913;51.168;4.124;2024-03-08T07:37:00;41.53;;;23.60;;
19535;SDS011;9913;51.168;4.124;2024-03-08T07:39:30;34.33;;;22.00;;
19535;SDS011;9913;51.168;4.124;2024-03-08T07:41:59;40.77;;;23.73;;
19535;SDS011;9913;51.168;4.124;2024-03-08T07:44:27;37.97;;;21.10;;
19535;SDS011;9913;51.168;4.124;2024-03-08T07:46:57;35.23;;;23.17;;
19535;SDS011;9913;51.168;4.124;2024-03-08T07:49:26;37.30;;;22.30;;
19535;SDS011;9913;51.168;4.124;2024-03-08T07:51:55;35.47;;;21.83;;
19535;SDS011;9913;51.168;4.124;2024-03-08T07:54:26;38.40;;;23.33;;
19535;SDS011;9913;51.168;4.124;2024-03-08T07:56:54;36.23;;;22.07;;
19535;SDS011;9913;51.168;4.124;2024-03-08T07:59:23;38.63;;;22.23;;
19535;SDS011;9913;51.168;4.124;2024-03-08T08:01:51;34.47;;;21.33;;
19535;SDS011;9913;51.168;4.124;2024-03-08T08:04:20;42.80;;;23.03;;
19535;SDS011;9913;51.168;4.124;2024-03-08T08:06:51;36.90;;;22.00;;
19535;SDS011;9913;51.168;4.124;2024-03-08T08:09:21;35.87;;;21.37;;
19535;SDS011;9913;51.168;4.124;2024-03-08T08:12:02;38.37;;;23.50;;
19535;SDS011;9913;51.168;4.124;2024-03-08T08:14:31;36.93;;;21.37;;
19535;SDS011;9913;51.168;4.124;2024-03-08T08:16:59;35.60;;;22.43;;
19535;SDS011;9913;51.168;4.124;2024-03-08T08:19:31;33.10;;;22.50;;
19535;SDS011;9913;51.168;4.124;2024-03-08T08:22:00;35.13;;;20.97;;
19535;SDS011;9913;51.168;4.124;2024-03-08T08:24:28;34.73;;;21.47;;
19535;SDS011;9913;51.168;4.124;2024-03-08T08:26:57;34.60;;;21.67;;
19535;SDS011;9913;51.168;4.124;2024-03-08T08:29:27;32.87;;;20.30;;
19535;SDS011;9913;51.168;4.124;2024-03-08T08:31:57;35.60;;;21.43;;
19535;SDS011;9913;51.168;4.124;2024-03-08T08:34:27;32.30;;;20.67;;
19535;SDS011;9913;51.168;4.124;2024-03-08T08:36:56;38.07;;;23.20;;
19535;SDS011;9913;51.168;4.124;2024-03-08T08:39:25;35.30;;;21.60;;
19535;SDS011;9913;51.168;4.124;2024-03-08T08:41:54;34.57;;;21.53;;
19535;SDS011;9913;51.168;4.124;2024-03-08T08:44:23;34.57;;;21.70;;
19535;SDS011;9913;51.168;4.124;2024-03-08T08:46:54;35.90;;;21.53;;
19535;SDS011;9913;51.168;4.124;2024-03-08T08:49:31;31.73;;;20.77;;
19535;SDS011;9913;51.168;4.124;2024-03-08T08:52:00;34.87;;;20.50;;
19535;SDS011;9913;51.168;4.124;2024-03-08T08:54:42;32.97;;;21.30;;
19535;SDS011;9913;51.168;4.124;2024-03-08T08:57:15;30.80;;;20.07;;
19535;SDS011;9913;51.168;4.124;2024-03-08T08:59:44;29.57;;;19.87;;
19535;SDS011;9913;51.168;4.124;2024-03-08T09:02:14;32.57;;;20.70;;
19535;SDS011;9913;51.168;4.124;2024-03-08T09:04:44;32.33;;;19.57;;
19535;SDS011;9913;51.168;4.124;2024-03-08T09:07:13;30.73;;;21.17;;
19535;SDS011;9913;51.168;4.124;2024-03-08T09:09:41;33.60;;;19.43;;
19535;SDS011;9913;51.168;4.124;2024-03-08T09:12:10;29.50;;;20.10;;
19535;SDS011;9913;51.168;4.124;2024-03-08T09:14:40;33.10;;;19.40;;
19535;SDS011;9913;51.168;4.124;2024-03-08T09:17:08;30.80;;;19.63;;
19535;SDS011;9913;51.168;4.124;2024-03-08T09:19:38;28.67;;;18.30;;
19535;SDS011;9913;51.168;4.124;2024-03-08T09:22:06;30.27;;;19.83;;
19535;SDS011;9913;51.168;4.124;2024-03-08T09:24:35;31.47;;;19.43;;
19535;SDS011;9913;51.168;4.124;2024-03-08T09:27:03;27.53;;;18.20;;
19535;SDS011;9913;51.168;4.124;2024-03-08T09:29:32;27.10;;;17.03;;
19535;SDS011;9913;51.168;4.124;2024-03-08T09:32:01;27.70;;;18.37;;
19535;SDS011;9913;51.168;4.124;2024-03-08T09:34:29;31.47;;;19.47;;
19535;SDS011;9913;51.168;4.124;2024-03-08T09:37:05;28.37;;;18.70;;
19535;SDS011;9913;51.168;4.124;2024-03-08T09:39:35;29.63;;;17.83;;
19535;SDS011;9913;51.168;4.124;2024-03-08T09:42:04;29.50;;;18.47;;
19535;SDS011;9913;51.168;4.124;2024-03-08T09:44:33;29.57;;;18.30;;
19535;SDS011;9913;51.168;4.124;2024-03-08T09:47:02;27.37;;;17.87;;
19535;SDS011;9913;51.168;4.124;2024-03-08T09:49:33;30.70;;;18.93;;
19535;SDS011;9913;51.168;4.124;2024-03-08T09:52:06;28.60;;;18.23;;
19535;SDS011;9913;51.168;4.124;2024-03-08T09:54:36;25.57;;;17.53;;
19535;SDS011;9913;51.168;4.124;2024-03-08T09:57:06;24.37;;;16.37;;
19535;SDS011;9913;51.168;4.124;2024-03-08T09:59:36;25.80;;;17.70;;
19535;SDS011;9913;51.168;4.124;2024-03-08T10:02:15;27.00;;;17.43;;
19535;SDS011;9913;51.168;4.124;2024-03-08T10:04:45;25.70;;;17.20;;
19535;SDS011;9913;51.168;4.124;2024-03-08T10:07:16;26.90;;;17.90;;
19535;SDS011;9913;51.168;4.124;2024-03-08T10:09:44;27.07;;;18.47;;
19535;SDS011;9913;51.168;4.124;2024-03-08T10:12:18;27.23;;;18.37;;
19535;SDS011;9913;51.168;4.124;2024-03-08T10:14:47;25.93;;;17.33;;
19535;SDS011;9913;51.168;4.124;2024-03-08T10:17:15;29.63;;;17.80;;
19535;SDS011;9913;51.168;4.124;2024-03-08T10:19:50;25.33;;;17.00;;
19535;SDS011;9913;51.168;4.124;2024-03-08T10:22:21;27.37;;;17.63;;
19535;SDS011;9913;51.168;4.124;2024-03-08T10:24:49;24.97;;;17.40;;
19535;SDS011;9913;51.168;4.124;2024-03-08T10:27:18;25.77;;;15.97;;
19535;SDS011;9913;51.168;4.124;2024-03-08T10:29:47;24.00;;;16.67;;
19535;SDS011;9913;51.168;4.124;2024-03-08T10:32:18;25.23;;;16.33;;
19535;SDS011;9913;51.168;4.124;2024-03-08T10:34:47;21.27;;;15.53;;
19535;SDS011;9913;51.168;4.124;2024-03-08T10:37:17;24.43;;;17.17;;
19535;SDS011;9913;51.168;4.124;2024-03-08T10:39:54;24.17;;;16.03;;
19535;SDS011;9913;51.168;4.124;2024-03-08T10:42:39;26.20;;;16.43;;
19535;SDS011;9913;51.168;4.124;2024-03-08T10:45:11;23.10;;;16.37;;
19535;SDS011;9913;51.168;4.124;2024-03-08T10:47:43;24.27;;;16.27;;
19535;SDS011;9913;51.168;4.124;2024-03-08T10:50:18;23.80;;;15.20;;
19535;SDS011;9913;51.168;4.124;2024-03-08T10:52:50;23.60;;;14.90;;
19535;SDS011;9913;51.168;4.124;2024-03-08T10:55:20;24.07;;;15.80;;
19535;SDS011;9913;51.168;4.124;2024-03-08T10:57:49;22.97;;;14.77;;
19535;SDS011;9913;51.168;4.124;2024-03-08T11:00:18;22.93;;;15.30;;
19535;SDS011;9913;51.168;4.124;2024-03-08T11:02:53;24.23;;;16.47;;
19535;SDS011;9913;51.168;4.124;2024-03-08T11:08:18;23.97;;;16.60;;
19535;SDS011;9913;51.168;4.124;2024-03-08T11:10:47;22.57;;;15.23;;
19535;SDS011;9913;51.168;4.124;2024-03-08T11:13:34;21.13;;;15.33;;
19535;SDS011;9913;51.168;4.124;2024-03-08T11:16:06;22.40;;;15.07;;
19535;SDS011;9913;51.168;4.124;2024-03-08T11:18:36;22.17;;;15.13;;
19535;SDS011;9913;51.168;4.124;2024-03-08T11:21:08;23.67;;;15.50;;
19535;SDS011;9913;51.168;4.124;2024-03-08T11:23:41;22.40;;;15.27;;
19535;SDS011;9913;51.168;4.124;2024-03-08T11:26:19;21.43;;;14.47;;
19535;SDS011;9913;51.168;4.124;2024-03-08T11:28:49;22.33;;;15.77;;
19535;SDS011;9913;51.168;4.124;2024-03-08T11:31:23;23.73;;;15.70;;
19535;SDS011;9913;51.168;4.124;2024-03-08T11:33:53;24.00;;;15.60;;
19535;SDS011;9913;51.168;4.124;2024-03-08T11:36:24;22.67;;;15.37;;
19535;SDS011;9913;51.168;4.124;2024-03-08T11:38:54;24.77;;;15.97;;
19535;SDS011;9913;51.168;4.124;2024-03-08T11:41:26;24.93;;;15.43;;
19535;SDS011;9913;51.168;4.124;2024-03-08T11:44:02;21.37;;;15.00;;
19535;SDS011;9913;51.168;4.124;2024-03-08T11:46:33;21.03;;;14.83;;
19535;SDS011;9913;51.168;4.124;2024-03-08T11:49:02;20.67;;;14.23;;
19535;SDS011;9913;51.168;4.124;2024-03-08T11:51:32;21.50;;;15.57;;
19535;SDS011;9913;51.168;4.124;2024-03-08T11:54:02;23.90;;;15.30;;
19535;SDS011;9913;51.168;4.124;2024-03-08T11:56:32;19.33;;;14.37;;
19535;SDS011;9913;51.168;4.124;2024-03-08T11:59:01;23.23;;;15.40;;
19535;SDS011;9913;51.168;4.124;2024-03-08T12:01:30;21.73;;;14.20;;
19535;SDS011;9913;51.168;4.124;2024-03-08T12:03:59;22.57;;;14.93;;
19535;SDS011;9913;51.168;4.124;2024-03-08T12:06:35;21.23;;;15.23;;
19535;SDS011;9913;51.168;4.124;2024-03-08T12:09:09;20.90;;;14.57;;
19535;SDS011;9913;51.168;4.124;2024-03-08T12:11:38;21.63;;;14.30;;
19535;SDS011;9913;51.168;4.124;2024-03-08T12:14:07;22.77;;;15.33;;
19535;SDS011;9913;51.168;4.124;2024-03-08T12:16:36;21.80;;;15.80;;
19535;SDS011;9913;51.168;4.124;2024-03-08T12:19:04;21.10;;;15.60;;
19535;SDS011;9913;51.168;4.124;2024-03-08T12:21:33;20.20;;;14.20;;
19535;SDS011;9913;51.168;4.124;2024-03-08T12:24:04;21.80;;;15.23;;
19535;SDS011;9913;51.168;4.124;2024-03-08T12:26:37;23.30;;;16.33;;
19535;SDS011;9913;51.168;4.124;2024-03-08T12:29:19;22.40;;;15.13;;
19535;SDS011;9913;51.168;4.124;2024-03-08T12:31:50;22.37;;;15.87;;
19535;SDS011;9913;51.168;4.124;2024-03-08T12:34:20;20.03;;;13.80;;
19535;SDS011;9913;51.168;4.124;2024-03-08T12:36:49;23.70;;;14.77;;
19535;SDS011;9913;51.168;4.124;2024-03-08T12:39:21;21.20;;;14.87;;
19535;SDS011;9913;51.168;4.124;2024-03-08T12:41:55;24.17;;;16.80;;
19535;SDS011;9913;51.168;4.124;2024-03-08T12:44:26;22.53;;;15.30;;
19535;SDS011;9913;51.168;4.124;2024-03-08T12:46:55;19.40;;;13.93;;
19535;SDS011;9913;51.168;4.124;2024-03-08T12:49:26;22.57;;;15.03;;
19535;SDS011;9913;51.168;4.124;2024-03-08T12:51:55;21.57;;;14.90;;
19535;SDS011;9913;51.168;4.124;2024-03-08T12:54:23;22.80;;;15.63;;
19535;SDS011;9913;51.168;4.124;2024-03-08T12:56:52;20.57;;;14.87;;
19535;SDS011;9913;51.168;4.124;2024-03-08T12:59:23;22.47;;;14.37;;
19535;SDS011;9913;51.168;4.124;2024-03-08T13:01:51;16.90;;;12.17;;
19535;SDS011;9913;51.168;4.124;2024-03-08T13:04:21;20.90;;;14.43;;
19535;SDS011;9913;51.168;4.124;2024-03-08T13:06:49;23.17;;;14.47;;
19535;SDS011;9913;51.168;4.124;2024-03-08T13:09:21;19.33;;;13.90;;
19535;SDS011;9913;51.168;4.124;2024-03-08T13:11:50;21.10;;;14.70;;
19535;SDS011;9913;51.168;4.124;2024-03-08T13:14:20;18.57;;;12.53;;
19535;SDS011;9913;51.168;4.124;2024-03-08T13:16:50;22.17;;;14.90;;
19535;SDS011;9913;51.168;4.124;2024-03-08T13:19:19;20.43;;;14.70;;
19535;SDS011;9913;51.168;4.124;2024-03-08T13:21:49;21.67;;;14.43;;
19535;SDS011;9913;51.168;4.124;2024-03-08T13:24:17;21.40;;;14.67;;
19535;SDS011;9913;51.168;4.124;2024-03-08T13:26:47;21.57;;;14.07;;
19535;SDS011;9913;51.168;4.124;2024-03-08T13:29:16;21.63;;;15.80;;
19535;SDS011;9913;51.168;4.124;2024-03-08T13:31:47;21.90;;;14.67;;
19535;SDS011;9913;51.168;4.124;2024-03-08T13:34:19;22.77;;;15.70;;
19535;SDS011;9913;51.168;4.124;2024-03-08T13:36:54;20.50;;;14.90;;
19535;SDS011;9913;51.168;4.124;2024-03-08T13:39:27;20.27;;;14.27;;
19535;SDS011;9913;51.168;4.124;2024-03-08T13:41:58;22.03;;;14.90;;
19535;SDS011;9913;51.168;4.124;2024-03-08T13:44:26;19.93;;;15.13;;
19535;SDS011;9913;51.168;4.124;2024-03-08T13:46:56;25.20;;;15.20;;
19535;SDS011;9913;51.168;4.124;2024-03-08T13:49:25;20.23;;;14.50;;
19535;SDS011;9913;51.168;4.124;2024-03-08T13:51:54;22.37;;;14.40;;
19535;SDS011;9913;51.168;4.124;2024-03-08T13:54:25;24.67;;;15.97;;
19535;SDS011;9913;51.168;4.124;2024-03-08T13:56:58;25.73;;;16.67;;
19535;SDS011;9913;51.168;4.124;2024-03-08T13:59:27;21.60;;;15.70;;
19535;SDS011;9913;51.168;4.124;2024-03-08T14:01:57;25.13;;;15.43;;
19535;SDS011;9913;51.168;4.124;2024-03-08T14:04:26;22.60;;;15.07;;
19535;SDS011;9913;51.168;4.124;2024-03-08T14:06:55;20.03;;;14.97;;
19535;SDS011;9913;51.168;4.124;2024-03-08T14:09:30;19.77;;;14.87;;
19535;SDS011;9913;51.168;4.124;2024-03-08T14:11:58;22.20;;;15.53;;
19535;SDS011;9913;51.168;4.124;2024-03-08T14:14:27;24.20;;;15.10;;
19535;SDS011;9913;51.168;4.124;2024-03-08T14:16:55;21.57;;;15.70;;
19535;SDS011;9913;51.168;4.124;2024-03-08T14:19:26;22.60;;;15.50;;
19535;SDS011;9913;51.168;4.124;2024-03-08T14:21:55;24.17;;;15.90;;
19535;SDS011;9913;51.168;4.124;2024-03-08T14:24:23;22.77;;;14.83;;
19535;SDS011;9913;51.168;4.124;2024-03-08T14:26:52;20.93;;;14.67;;
19535;SDS011;9913;51.168;4.124;2024-03-08T14:29:20;21.87;;;15.07;;
19535;SDS011;9913;51.168;4.124;2024-03-08T14:31:49;22.20;;;15.10;;
19535;SDS011;9913;51.168;4.124;2024-03-08T14:34:17;21.47;;;14.50;;
19535;SDS011;9913;51.168;4.124;2024-03-08T14:36:48;19.33;;;13.43;;
19535;SDS011;9913;51.168;4.124;2024-03-08T14:39:16;21.70;;;14.13;;
19535;SDS011;9913;51.168;4.124;2024-03-08T14:41:48;21.27;;;13.97;;
19535;SDS011;9913;51.168;4.124;2024-03-08T14:44:20;21.87;;;15.20;;
19535;SDS011;9913;51.168;4.124;2024-03-08T14:46:49;18.97;;;13.40;;
19535;SDS011;9913;51.168;4.124;2024-03-08T14:49:17;21.33;;;13.93;;
19535;SDS011;9913;51.168;4.124;2024-03-08T14:51:45;20.67;;;14.50;;